createdAt,value
2018-02-12T00:00:37.237Z,0.87
2018-02-12T00:01:37.158Z,0.85
2018-02-12T00:02:37.231Z,0.82
2018-02-12T00:03:37.148Z,0.80
2018-02-12T00:04:37.252Z,0.76
2018-02-12T00:05:37.153Z,0.73
2018-02-12T00:06:37.259Z,0.70
2018-02-12T00:07:37.166Z,0.67
2018-02-12T00:08:41.782Z,0.64
2018-02-12T00:09:37.155Z,0.62
2018-02-12T00:10:37.191Z,0.62
2018-02-12T00:11:37.165Z,0.60
2018-02-12T00:12:37.197Z,0.59
2018-02-12T00:13:37.173Z,0.59
2018-02-12T00:14:37.168Z,0.60
2018-02-12T00:15:37.180Z,0.64
2018-02-12T00:16:37.236Z,0.67
2018-02-12T00:17:37.188Z,0.72
2018-02-12T00:18:38.262Z,0.74
2018-02-12T00:19:37.174Z,0.80
2018-02-12T00:20:37.256Z,0.84
2018-02-12T00:21:37.173Z,0.87
2018-02-12T00:22:37.268Z,0.91
2018-02-12T00:23:37.183Z,0.96
2018-02-12T00:24:37.279Z,0.99
2018-02-12T00:25:37.192Z,1.00
2018-02-12T00:26:37.304Z,1.02
2018-02-12T00:27:37.177Z,1.02
2018-02-12T00:28:37.218Z,1.02
2018-02-12T00:29:37.179Z,1.02
2018-02-12T00:30:37.218Z,1.03
2018-02-12T00:31:37.183Z,1.03
2018-02-12T00:32:37.237Z,1.05
2018-02-12T00:33:37.200Z,1.06
2018-02-12T00:34:37.245Z,1.09
2018-02-12T00:35:37.191Z,1.10
2018-02-12T00:36:37.263Z,1.16
2018-02-12T00:37:37.198Z,1.17
2018-02-12T00:38:37.278Z,1.20
2018-02-12T00:39:37.207Z,1.21
2018-02-12T00:40:37.296Z,1.21
2018-02-12T00:41:37.197Z,1.23
2018-02-12T00:42:37.301Z,1.23
2018-02-12T00:43:37.211Z,1.23
2018-02-12T00:44:37.310Z,1.21
2018-02-12T00:45:37.204Z,1.21
2018-02-12T00:46:37.220Z,1.23
2018-02-12T00:47:37.209Z,1.24
2018-02-12T00:48:37.244Z,1.24
2018-02-12T00:49:37.208Z,1.26
2018-02-12T00:50:37.256Z,1.27
2018-02-12T00:51:37.218Z,1.27
2018-02-12T00:52:37.267Z,1.26
2018-02-12T00:53:37.219Z,1.27
2018-02-12T00:54:37.281Z,1.26
2018-02-12T00:55:37.220Z,1.26
2018-02-12T00:56:37.295Z,1.26
2018-02-12T00:57:37.225Z,1.26
2018-02-12T00:58:37.306Z,1.24
2018-02-12T00:59:37.223Z,1.23
2018-02-12T01:00:37.324Z,1.23
2018-02-12T01:01:37.224Z,1.21
2018-02-12T01:02:37.338Z,1.20
2018-02-12T01:03:37.231Z,1.18
2018-02-12T01:04:38.270Z,1.16
2018-02-12T01:05:37.231Z,1.17
2018-02-12T01:06:37.263Z,1.18
2018-02-12T01:07:37.234Z,1.20
2018-02-12T01:08:37.270Z,1.21
2018-02-12T01:09:37.230Z,1.23
2018-02-12T01:10:37.287Z,1.24
2018-02-12T01:11:37.244Z,1.27
2018-02-12T01:12:39.347Z,1.27
2018-02-12T01:13:37.255Z,1.28
2018-02-12T01:14:37.317Z,1.30
2018-02-12T01:15:37.246Z,1.31
2018-02-12T01:16:37.328Z,1.34
2018-02-12T01:17:37.248Z,1.31
2018-02-12T01:18:37.345Z,1.30
2018-02-12T01:19:37.255Z,1.30
2018-02-12T01:20:37.367Z,1.28
2018-02-12T01:21:37.249Z,1.27
2018-02-12T01:22:37.274Z,1.26
2018-02-12T01:23:37.246Z,1.24
2018-02-12T01:24:39.332Z,1.23
2018-02-12T01:25:37.256Z,1.20
2018-02-12T01:26:37.291Z,1.18
2018-02-12T01:27:37.253Z,1.18
2018-02-12T01:28:38.341Z,1.17
2018-02-12T01:29:37.255Z,1.16
2018-02-12T01:30:37.322Z,1.16
2018-02-12T01:31:37.263Z,1.16
2018-02-12T01:32:37.329Z,1.13
2018-02-12T01:33:37.278Z,1.12
2018-02-12T01:34:37.349Z,1.16
2018-02-12T01:35:37.274Z,1.16
2018-02-12T01:36:37.359Z,1.16
2018-02-12T01:37:37.265Z,1.17
2018-02-12T01:38:38.297Z,1.20
2018-02-12T01:39:37.271Z,1.20
2018-02-12T01:40:37.286Z,1.21
2018-02-12T01:41:37.292Z,1.21
2018-02-12T01:42:37.298Z,1.23
2018-02-12T01:43:37.278Z,1.24
2018-02-12T01:44:37.313Z,1.27
2018-02-12T01:45:37.274Z,1.27
2018-02-12T01:46:38.353Z,1.30
2018-02-12T01:47:37.293Z,1.31
2018-02-12T01:48:37.341Z,1.34
2018-02-12T01:49:37.279Z,1.31
2018-02-12T01:50:37.359Z,1.36
2018-02-12T01:51:37.301Z,1.36
2018-02-12T01:52:37.370Z,1.38
2018-02-12T01:53:37.294Z,1.38
2018-02-12T01:54:37.385Z,1.38
2018-02-12T01:55:37.296Z,1.36
2018-02-12T01:56:37.395Z,1.36
2018-02-12T01:57:37.307Z,1.39
2018-02-12T01:58:37.428Z,1.39
2018-02-12T01:59:37.291Z,1.39
2018-02-12T02:00:37.322Z,1.39
2018-02-12T02:01:37.301Z,1.42
2018-02-12T02:02:38.359Z,1.44
2018-02-12T02:03:37.299Z,1.44
2018-02-12T02:04:37.348Z,1.44
2018-02-12T02:05:37.305Z,1.45
2018-02-12T02:06:37.363Z,1.44
2018-02-12T02:07:37.305Z,1.44
2018-02-12T02:08:38.416Z,1.42
2018-02-12T02:09:37.310Z,1.42
2018-02-12T02:10:37.393Z,1.42
2018-02-12T02:11:37.307Z,1.42
2018-02-12T02:12:37.401Z,1.42
2018-02-12T02:13:37.307Z,1.44
2018-02-12T02:14:37.413Z,1.44
2018-02-12T02:15:37.319Z,1.45
2018-02-12T02:16:37.327Z,1.46
2018-02-12T02:17:37.321Z,1.46
2018-02-12T02:18:37.341Z,1.45
2018-02-12T02:19:37.318Z,1.46
2018-02-12T02:20:37.352Z,1.45
2018-02-12T02:21:37.313Z,1.44
2018-02-12T02:22:37.368Z,1.41
2018-02-12T02:23:37.326Z,1.36
2018-02-12T02:24:37.390Z,1.34
2018-02-12T02:25:37.323Z,1.27
2018-02-12T02:26:38.424Z,1.24
2018-02-12T02:27:37.323Z,1.24
2018-02-12T02:28:37.418Z,1.24
2018-02-12T02:29:37.326Z,1.26
2018-02-12T02:30:37.424Z,1.27
2018-02-12T02:31:37.332Z,1.28
2018-02-12T02:32:38.367Z,1.30
2018-02-12T02:33:37.335Z,1.34
2018-02-12T02:34:37.449Z,1.35
2018-02-12T02:35:37.336Z,1.36
2018-02-12T02:36:37.359Z,1.38
2018-02-12T02:37:37.340Z,1.39
2018-02-12T02:38:37.377Z,1.41
2018-02-12T02:39:37.350Z,1.42
2018-02-12T02:40:38.420Z,1.42
2018-02-12T02:41:37.348Z,1.44
2018-02-12T02:42:37.424Z,1.44
2018-02-12T02:43:37.343Z,1.45
2018-02-12T02:44:38.382Z,1.45
2018-02-12T02:45:37.343Z,1.46
2018-02-12T02:46:37.442Z,1.46
2018-02-12T02:47:37.354Z,1.44
2018-02-12T02:48:37.444Z,1.46
2018-02-12T02:49:37.355Z,1.44
2018-02-12T02:50:37.467Z,1.45
2018-02-12T02:51:37.356Z,1.44
2018-02-12T02:52:37.377Z,1.41
2018-02-12T02:53:37.351Z,1.39
2018-02-12T02:54:37.389Z,1.39
2018-02-12T02:55:37.379Z,1.39
2018-02-12T02:56:37.399Z,1.36
2018-02-12T02:57:37.361Z,1.36
2018-02-12T02:58:38.451Z,1.35
2018-02-12T02:59:37.360Z,1.35
2018-02-12T03:00:37.432Z,1.35
2018-02-12T03:01:37.366Z,1.35
2018-02-12T03:02:37.445Z,1.36
2018-02-12T03:03:37.371Z,1.35
2018-02-12T03:04:37.478Z,1.36
2018-02-12T03:05:37.368Z,1.38
2018-02-12T03:06:37.466Z,1.38
2018-02-12T03:07:37.368Z,1.38
2018-02-12T03:08:37.505Z,1.38
2018-02-12T03:09:37.379Z,1.38
2018-02-12T03:10:37.404Z,1.39
2018-02-12T03:11:37.372Z,1.36
2018-02-12T03:12:37.407Z,1.38
2018-02-12T03:13:37.374Z,1.36
2018-02-12T03:14:37.427Z,1.36
2018-02-12T03:15:37.379Z,1.36
2018-02-12T03:16:37.487Z,1.35
2018-02-12T03:17:37.396Z,1.35
2018-02-12T03:18:37.500Z,1.35
2018-02-12T03:19:37.388Z,1.35
2018-02-12T03:20:39.447Z,1.34
2018-02-12T03:21:37.436Z,1.31
2018-02-12T03:22:37.415Z,1.34
2018-02-12T03:23:37.388Z,1.34
2018-02-12T03:24:37.440Z,1.35
2018-02-12T03:25:37.403Z,1.34
2018-02-12T03:26:38.491Z,1.31
2018-02-12T03:27:37.393Z,1.31
2018-02-12T03:28:37.454Z,1.30
2018-02-12T03:29:37.394Z,1.30
2018-02-12T03:30:38.496Z,1.30
2018-02-12T03:31:37.402Z,1.30
2018-02-12T03:32:38.522Z,1.30
2018-02-12T03:33:37.399Z,1.28
2018-02-12T03:34:37.398Z,1.30
2018-02-12T03:35:37.517Z,1.28
2018-02-12T03:36:37.408Z,1.30
2018-02-12T03:37:37.421Z,1.27
2018-02-12T03:38:37.401Z,1.27
2018-02-12T03:39:37.462Z,1.27
2018-02-12T03:40:37.406Z,1.27
2018-02-12T03:41:37.464Z,1.26
2018-02-12T03:42:37.419Z,1.26
2018-02-12T03:43:37.474Z,1.24
2018-02-12T03:44:37.410Z,1.26
2018-02-12T03:45:38.509Z,1.26
2018-02-12T03:46:37.416Z,1.26
2018-02-12T03:47:37.496Z,1.24
2018-02-12T03:48:37.418Z,1.26
2018-02-12T03:49:37.505Z,1.24
2018-02-12T03:50:37.420Z,1.24
2018-02-12T03:51:37.537Z,1.20
2018-02-12T03:52:37.420Z,1.20
2018-02-12T03:53:37.541Z,1.17
2018-02-12T03:54:37.419Z,1.16
2018-02-12T03:55:37.444Z,1.13
2018-02-12T03:56:37.422Z,1.12
2018-02-12T03:57:38.488Z,1.10
2018-02-12T03:58:37.427Z,1.08
2018-02-12T03:59:37.479Z,1.08
2018-02-12T04:00:37.440Z,1.08
2018-02-12T04:01:37.486Z,1.08
2018-02-12T04:02:37.440Z,1.08
2018-02-12T04:03:37.498Z,1.09
2018-02-12T04:04:37.434Z,1.10
2018-02-12T04:05:37.518Z,1.10
2018-02-12T04:06:37.440Z,1.12
2018-02-12T04:07:37.538Z,1.12
2018-02-12T04:08:37.438Z,1.12
2018-02-12T04:09:37.538Z,1.12
2018-02-12T04:10:37.442Z,1.12
2018-02-12T04:11:39.510Z,1.12
2018-02-12T04:12:37.437Z,1.12
2018-02-12T04:13:37.466Z,1.10
2018-02-12T04:14:37.437Z,1.10
2018-02-12T04:15:44.336Z,1.12
2018-02-12T04:16:37.448Z,1.09
2018-02-12T04:17:38.525Z,1.09
2018-02-12T04:18:37.443Z,1.09
2018-02-12T04:19:39.546Z,1.08
2018-02-12T04:20:37.456Z,1.08
2018-02-12T04:21:38.542Z,1.08
2018-02-12T04:22:37.452Z,1.08
2018-02-12T04:23:37.529Z,1.06
2018-02-12T04:24:37.460Z,1.06
2018-02-12T04:25:37.546Z,1.08
2018-02-12T04:26:37.463Z,1.08
2018-02-12T04:27:38.479Z,1.08
2018-02-12T04:28:37.459Z,1.08
2018-02-12T04:29:37.572Z,1.08
2018-02-12T04:30:37.453Z,1.06
2018-02-12T04:31:53.265Z,1.05
2018-02-12T04:32:37.457Z,1.05
2018-02-12T04:33:42.304Z,1.05
2018-02-12T04:34:37.457Z,1.05
2018-02-12T04:35:37.510Z,1.03
2018-02-12T04:36:37.511Z,1.03
2018-02-12T04:37:37.520Z,1.05
2018-02-12T04:38:37.468Z,1.05
2018-02-12T04:39:37.548Z,1.05
2018-02-12T04:40:37.471Z,1.03
2018-02-12T04:41:37.550Z,1.03
2018-02-12T04:42:37.466Z,1.03
2018-02-12T04:43:48.316Z,1.03
2018-02-12T04:44:37.477Z,1.03
2018-02-12T04:45:37.577Z,1.03
2018-02-12T04:46:37.477Z,1.03
2018-02-12T04:47:37.591Z,1.03
2018-02-12T04:48:37.483Z,1.02
2018-02-12T04:49:38.523Z,1.02
2018-02-12T04:50:37.477Z,1.00
2018-02-12T04:51:38.542Z,1.00
2018-02-12T04:52:37.494Z,1.00
2018-02-12T04:53:38.559Z,1.00
2018-02-12T04:54:37.485Z,0.99
2018-02-12T04:55:49.320Z,1.00
2018-02-12T04:56:37.484Z,0.98
2018-02-12T04:57:38.578Z,0.98
2018-02-12T04:58:37.484Z,0.96
2018-02-12T04:59:37.568Z,0.96
2018-02-12T05:00:37.485Z,0.94
2018-02-12T05:01:39.529Z,0.91
2018-02-12T05:02:37.497Z,0.88
2018-02-12T05:03:37.598Z,0.87
2018-02-12T05:04:37.487Z,0.87
2018-02-12T05:05:38.532Z,0.87
2018-02-12T05:06:37.488Z,0.87
2018-02-12T05:07:54.321Z,0.87
2018-02-12T05:08:37.498Z,0.88
2018-02-12T05:09:37.490Z,0.88
2018-02-12T05:10:37.542Z,0.90
2018-02-12T05:11:37.496Z,0.92
2018-02-12T05:12:38.581Z,0.92
2018-02-12T05:13:37.496Z,0.91
2018-02-12T05:14:38.598Z,0.90
2018-02-12T05:15:37.510Z,0.87
2018-02-12T05:16:37.584Z,0.82
2018-02-12T05:17:37.505Z,0.78
2018-02-12T05:18:38.516Z,0.78
2018-02-12T05:19:37.508Z,0.78
2018-02-12T05:20:37.606Z,0.80
2018-02-12T05:21:37.505Z,0.82
2018-02-12T05:22:42.333Z,0.85
2018-02-12T05:23:37.503Z,0.87
2018-02-12T05:24:37.534Z,0.90
2018-02-12T05:25:37.516Z,0.90
2018-02-12T05:26:37.546Z,0.94
2018-02-12T05:27:37.516Z,0.96
2018-02-12T05:28:37.566Z,0.96
2018-02-12T05:29:37.515Z,0.96
2018-02-12T05:30:39.627Z,0.96
2018-02-12T05:31:37.523Z,0.98
2018-02-12T05:32:37.591Z,0.99
2018-02-12T05:33:37.524Z,0.98
2018-02-12T05:34:37.603Z,0.99
2018-02-12T05:35:37.520Z,0.98
2018-02-12T05:36:37.614Z,0.96
2018-02-12T05:37:37.535Z,0.96
2018-02-12T05:38:38.553Z,0.96
2018-02-12T05:39:37.526Z,0.96
2018-02-12T05:40:37.542Z,0.94
2018-02-12T05:41:37.522Z,0.94
2018-02-12T05:42:38.578Z,0.94
2018-02-12T05:43:37.523Z,0.94
2018-02-12T05:44:39.637Z,0.91
2018-02-12T05:45:37.531Z,0.90
2018-02-12T05:46:38.620Z,0.91
2018-02-12T05:47:37.531Z,0.91
2018-02-12T05:48:37.593Z,0.90
2018-02-12T05:49:37.540Z,0.90
2018-02-12T05:50:37.598Z,0.90
2018-02-12T05:51:37.541Z,0.88
2018-02-12T05:52:37.614Z,0.90
2018-02-12T05:53:37.545Z,0.90
2018-02-12T05:54:37.640Z,0.90
2018-02-12T05:55:37.537Z,0.90
2018-02-12T05:56:37.641Z,0.90
2018-02-12T05:57:37.545Z,0.90
2018-02-12T05:58:37.655Z,0.91
2018-02-12T05:59:37.543Z,0.88
2018-02-12T06:00:38.587Z,0.90
2018-02-12T06:01:37.540Z,0.90
2018-02-12T06:02:37.586Z,0.90
2018-02-12T06:03:37.584Z,0.88
2018-02-12T06:04:37.548Z,0.90
2018-02-12T06:05:37.549Z,0.90
2018-02-12T06:06:37.546Z,0.90
2018-02-12T06:07:37.567Z,0.90
2018-02-12T06:08:37.565Z,0.88
2018-02-12T06:09:37.556Z,0.88
2018-02-12T06:10:37.601Z,0.88
2018-02-12T06:11:37.574Z,0.87
2018-02-12T06:12:37.612Z,0.85
2018-02-12T06:13:37.584Z,0.84
2018-02-12T06:14:37.628Z,0.84
2018-02-12T06:15:37.561Z,0.84
2018-02-12T06:16:37.638Z,0.84
2018-02-12T06:17:37.554Z,0.82
2018-02-12T06:18:37.596Z,0.81
2018-02-12T06:19:37.555Z,0.82
2018-02-12T06:20:37.612Z,0.81
2018-02-12T06:21:37.560Z,0.81
2018-02-12T06:22:37.616Z,0.82
2018-02-12T06:23:37.578Z,0.84
2018-02-12T06:24:37.568Z,0.84
2018-02-12T06:25:37.611Z,0.82
2018-02-12T06:26:37.619Z,0.82
2018-02-12T06:27:37.578Z,0.80
2018-02-12T06:28:37.636Z,0.80
2018-02-12T06:29:37.574Z,0.78
2018-02-12T06:30:37.644Z,0.80
2018-02-12T06:31:37.584Z,0.73
2018-02-12T06:32:37.658Z,0.73
2018-02-12T06:33:37.579Z,0.69
2018-02-12T06:34:37.684Z,0.66
2018-02-12T06:35:37.576Z,0.64
2018-02-12T06:36:37.683Z,0.62
2018-02-12T06:37:37.573Z,0.56
2018-02-12T06:38:37.599Z,0.55
2018-02-12T06:39:37.576Z,0.51
2018-02-12T06:40:37.590Z,0.51
2018-02-12T06:41:37.576Z,0.51
2018-02-12T06:42:38.630Z,0.50
2018-02-12T06:43:37.575Z,0.50
2018-02-12T06:44:37.623Z,0.51
2018-02-12T06:45:37.581Z,0.53
2018-02-12T06:46:37.634Z,0.55
2018-02-12T06:47:37.579Z,0.59
2018-02-12T06:48:37.649Z,0.60
2018-02-12T06:49:37.616Z,0.60
2018-02-12T06:50:37.670Z,0.60
2018-02-12T06:51:37.595Z,0.59
2018-02-12T06:52:37.681Z,0.59
2018-02-12T06:53:37.591Z,0.60
2018-02-12T06:54:37.686Z,0.59
2018-02-12T06:55:37.596Z,0.60
2018-02-12T06:56:37.716Z,0.62
2018-02-12T06:57:37.589Z,0.64
2018-02-12T06:58:37.611Z,0.66
2018-02-12T06:59:37.593Z,0.67
2018-02-12T07:00:37.728Z,0.70
2018-02-12T07:01:37.596Z,0.72
2018-02-12T07:02:37.631Z,0.73
2018-02-12T07:03:37.605Z,0.74
2018-02-12T07:04:38.686Z,0.76
2018-02-12T07:05:37.594Z,0.76
2018-02-12T07:06:37.658Z,0.78
2018-02-12T07:07:37.643Z,0.80
2018-02-12T07:08:42.288Z,0.82
2018-02-12T07:09:37.602Z,0.82
2018-02-12T07:10:38.710Z,0.82
2018-02-12T07:11:37.603Z,0.81
2018-02-12T07:12:37.614Z,0.82
2018-02-12T07:13:48.260Z,0.85
2018-02-12T07:14:37.603Z,0.84
2018-02-12T07:15:38.666Z,0.84
2018-02-12T07:16:37.609Z,0.84
2018-02-12T07:17:38.667Z,0.82
2018-02-12T07:18:37.608Z,0.82
2018-02-12T07:19:37.659Z,0.81
2018-02-12T07:20:37.615Z,0.78
2018-02-12T07:21:42.285Z,0.76
2018-02-12T07:22:37.612Z,0.74
2018-02-12T07:23:37.693Z,0.72
2018-02-12T07:24:37.617Z,0.69
2018-02-12T07:25:38.720Z,0.66
2018-02-12T07:26:37.613Z,0.63
2018-02-12T07:27:38.646Z,0.60
2018-02-12T07:28:37.616Z,0.56
2018-02-12T07:29:37.725Z,0.55
2018-02-12T07:30:37.625Z,0.53
2018-02-12T07:31:37.635Z,0.51
2018-02-12T07:32:37.622Z,0.51
2018-02-12T07:33:37.671Z,0.50
2018-02-12T07:34:37.624Z,0.50
2018-02-12T07:35:37.717Z,0.50
2018-02-12T07:36:37.629Z,0.48
2018-02-12T07:37:37.677Z,0.48
2018-02-12T07:38:37.630Z,0.50
2018-02-12T07:39:37.703Z,0.51
2018-02-12T07:40:37.638Z,0.50
2018-02-12T07:41:37.701Z,0.51
2018-02-12T07:42:37.635Z,0.53
2018-02-12T07:43:38.746Z,0.53
2018-02-12T07:44:37.639Z,0.59
2018-02-12T07:45:38.659Z,0.62
2018-02-12T07:46:37.634Z,0.66
2018-02-12T07:47:37.638Z,0.72
2018-02-12T07:48:37.651Z,0.80
2018-02-12T07:49:38.203Z,0.85
2018-02-12T07:50:37.641Z,0.92
2018-02-12T07:51:37.635Z,1.00
2018-02-12T07:52:37.678Z,1.09
2018-02-12T07:53:37.630Z,1.18
2018-02-12T07:54:37.640Z,1.31
2018-02-12T07:55:37.671Z,1.42
2018-02-12T07:56:37.667Z,1.53
2018-02-12T07:57:37.642Z,1.60
2018-02-12T07:58:37.643Z,1.73
2018-02-12T07:59:37.647Z,1.82
2018-02-12T08:00:37.661Z,1.89
2018-02-12T08:01:37.646Z,1.92
2018-02-12T08:02:37.718Z,1.93
2018-02-12T08:03:37.645Z,1.92
2018-02-12T08:04:37.813Z,1.91
2018-02-12T08:05:37.669Z,1.87
2018-02-12T08:06:37.807Z,1.84
2018-02-12T08:07:37.658Z,1.78
2018-02-12T08:08:37.816Z,1.77
2018-02-12T08:09:37.652Z,1.74
2018-02-12T08:10:37.822Z,1.73
2018-02-12T08:11:37.659Z,1.69
2018-02-12T08:12:37.741Z,1.66
2018-02-12T08:13:37.657Z,1.66
2018-02-12T08:14:37.771Z,1.64
2018-02-12T08:15:37.657Z,1.62
2018-02-12T08:16:43.359Z,1.62
2018-02-12T08:17:37.662Z,1.62
2018-02-12T08:18:37.742Z,1.60
2018-02-12T08:19:37.706Z,1.60
2018-02-12T08:20:37.754Z,1.60
2018-02-12T08:21:37.671Z,1.60
2018-02-12T08:22:38.818Z,1.59
2018-02-12T08:23:37.673Z,1.57
2018-02-12T08:24:37.787Z,1.55
2018-02-12T08:25:37.660Z,1.53
2018-02-12T08:26:37.795Z,1.49
2018-02-12T08:27:37.724Z,1.45
2018-02-12T08:28:38.730Z,1.39
2018-02-12T08:29:37.670Z,1.36
2018-02-12T08:30:37.835Z,1.34
2018-02-12T08:31:37.678Z,1.28
2018-02-12T08:32:37.732Z,1.27
2018-02-12T08:33:37.673Z,1.23
2018-02-12T08:34:37.673Z,1.21
2018-02-12T08:35:37.675Z,1.18
2018-02-12T08:36:37.757Z,1.17
2018-02-12T08:37:37.696Z,1.17
2018-02-12T08:38:38.789Z,1.16
2018-02-12T08:39:37.695Z,1.16
2018-02-12T08:40:37.791Z,1.17
2018-02-12T08:41:37.674Z,1.17
2018-02-12T08:42:37.816Z,1.16
2018-02-12T08:43:37.680Z,1.17
2018-02-12T08:44:37.826Z,1.17
2018-02-12T08:45:37.681Z,1.21
2018-02-12T08:46:37.831Z,1.24
2018-02-12T08:47:37.685Z,1.26
2018-02-12T08:48:37.849Z,1.28
2018-02-12T08:49:37.694Z,1.31
2018-02-12T08:50:37.771Z,1.35
2018-02-12T08:51:37.688Z,1.36
2018-02-12T08:52:37.758Z,1.35
2018-02-12T08:53:37.686Z,1.31
2018-02-12T08:54:37.770Z,1.31
2018-02-12T08:55:37.704Z,1.28
2018-02-12T08:56:37.833Z,1.27
2018-02-12T08:57:37.722Z,1.27
2018-02-12T08:58:37.817Z,1.28
2018-02-12T08:59:37.698Z,1.31
2018-02-12T09:00:37.848Z,1.35
2018-02-12T09:01:37.705Z,1.39
2018-02-12T09:02:37.824Z,1.42
2018-02-12T09:03:37.716Z,1.45
2018-02-12T09:04:37.837Z,1.48
2018-02-12T09:05:37.721Z,1.52
2018-02-12T09:06:37.852Z,1.52
2018-02-12T09:07:37.711Z,1.56
2018-02-12T09:08:43.458Z,1.62
2018-02-12T09:09:37.752Z,1.67
2018-02-12T09:10:37.815Z,1.80
2018-02-12T09:11:37.739Z,1.97
2018-02-12T09:12:38.925Z,2.14
2018-02-12T09:13:37.722Z,2.32
2018-02-12T09:14:37.857Z,2.45
2018-02-12T09:15:37.740Z,2.55
2018-02-12T09:16:37.875Z,2.66
2018-02-12T09:17:37.744Z,2.72
2018-02-12T09:18:37.888Z,2.75
2018-02-12T09:19:37.747Z,2.72
2018-02-12T09:20:38.942Z,2.68
2018-02-12T09:21:37.732Z,2.61
2018-02-12T09:22:38.025Z,2.60
2018-02-12T09:23:37.734Z,2.55
2018-02-12T09:24:37.934Z,2.50
2018-02-12T09:25:37.737Z,2.45
2018-02-12T09:26:37.948Z,2.45
2018-02-12T09:27:37.752Z,2.40
2018-02-12T09:28:37.955Z,2.36
2018-02-12T09:29:37.768Z,2.33
2018-02-12T09:30:38.884Z,2.28
2018-02-12T09:31:37.765Z,2.24
2018-02-12T09:32:37.775Z,2.21
2018-02-12T09:33:37.769Z,2.18
2018-02-12T09:34:37.769Z,2.18
2018-02-12T09:35:37.766Z,2.19
2018-02-12T09:36:37.767Z,2.19
2018-02-12T09:37:37.770Z,2.21
2018-02-12T09:38:37.817Z,2.21
2018-02-12T09:39:37.775Z,2.21
2018-02-12T09:40:37.828Z,2.24
2018-02-12T09:41:37.780Z,2.24
2018-02-12T09:42:37.841Z,2.22
2018-02-12T09:43:37.801Z,2.21
2018-02-12T09:44:37.981Z,2.21
2018-02-12T09:45:37.790Z,2.18
2018-02-12T09:46:37.866Z,2.18
2018-02-12T09:47:37.793Z,2.18
2018-02-12T09:48:37.876Z,2.19
2018-02-12T09:49:37.804Z,2.21
2018-02-12T09:50:37.887Z,2.21
2018-02-12T09:51:37.811Z,2.21
2018-02-12T09:52:37.901Z,2.22
2018-02-12T09:53:37.806Z,2.24
2018-02-12T09:54:37.915Z,2.25
2018-02-12T09:55:37.819Z,2.28
2018-02-12T09:56:37.929Z,2.28
2018-02-12T09:57:37.835Z,2.29
2018-02-12T09:58:37.816Z,2.29
2018-02-12T09:59:37.844Z,2.29
2018-02-12T10:00:37.829Z,2.29
2018-02-12T10:01:37.895Z,2.30
2018-02-12T10:02:37.848Z,2.30
2018-02-12T10:03:38.001Z,2.32
2018-02-12T10:04:37.841Z,2.36
2018-02-12T10:05:42.793Z,2.39
2018-02-12T10:06:37.842Z,2.40
2018-02-12T10:07:37.897Z,2.43
2018-02-12T10:08:37.862Z,2.47
2018-02-12T10:09:37.916Z,2.51
2018-02-12T10:10:37.862Z,2.54
2018-02-12T10:11:37.921Z,2.55
2018-02-12T10:12:37.895Z,2.57
2018-02-12T10:13:37.930Z,2.57
2018-02-12T10:14:37.894Z,2.60
2018-02-12T10:15:37.955Z,2.61
2018-02-12T10:16:37.877Z,2.61
2018-02-12T10:17:37.982Z,2.61
2018-02-12T10:18:37.891Z,2.63
2018-02-12T10:19:37.988Z,2.63
2018-02-12T10:20:37.895Z,2.65
2018-02-12T10:21:38.018Z,2.66
2018-02-12T10:22:37.920Z,2.65
2018-02-12T10:23:38.995Z,2.65
2018-02-12T10:24:37.908Z,2.66
2018-02-12T10:25:38.032Z,2.68
2018-02-12T10:26:37.910Z,2.69
2018-02-12T10:27:38.043Z,2.71
2018-02-12T10:28:37.938Z,2.72
2018-02-12T10:29:37.954Z,2.75
2018-02-12T10:30:37.962Z,2.78
2018-02-12T10:31:37.957Z,2.82
2018-02-12T10:32:37.942Z,2.89
2018-02-12T10:33:37.982Z,2.96
2018-02-12T10:34:37.951Z,2.97
2018-02-12T10:35:37.997Z,2.97
2018-02-12T10:36:37.939Z,2.99
2018-02-12T10:37:38.009Z,3.00
2018-02-12T10:38:37.949Z,3.00
2018-02-12T10:39:43.853Z,3.04
2018-02-12T10:40:37.983Z,3.08
2018-02-12T10:41:38.052Z,3.12
2018-02-12T10:42:37.967Z,3.15
2018-02-12T10:43:39.124Z,3.20
2018-02-12T10:44:38.040Z,3.22
2018-02-12T10:45:38.040Z,3.26
2018-02-12T10:46:38.021Z,3.26
2018-02-12T10:47:38.052Z,3.29
2018-02-12T10:48:37.985Z,3.29
2018-02-12T10:49:38.062Z,3.33
2018-02-12T10:50:37.993Z,3.36
2018-02-12T10:51:38.080Z,3.37
2018-02-12T10:52:38.003Z,3.42
2018-02-12T10:53:38.083Z,3.45
2018-02-12T10:54:38.018Z,3.45
2018-02-12T10:55:38.015Z,3.49
2018-02-12T10:56:38.138Z,3.52
2018-02-12T10:57:38.010Z,3.54
2018-02-12T10:58:38.158Z,3.55
2018-02-12T10:59:38.028Z,3.56
2018-02-12T11:00:38.164Z,3.56
2018-02-12T11:01:38.053Z,3.59
2018-02-12T11:02:38.225Z,3.59
2018-02-12T11:04:44.186Z,3.59
2018-02-12T11:06:04.007Z,3.59
2018-02-12T11:07:03.968Z,3.59
2018-02-12T11:08:04.001Z,3.62
2018-02-12T11:09:03.964Z,3.63
2018-02-12T11:10:03.990Z,3.69
2018-02-12T11:11:03.968Z,3.74
2018-02-12T11:12:04.011Z,3.80
2018-02-12T11:13:03.987Z,3.84
2018-02-12T11:14:04.017Z,3.91
2018-02-12T11:15:03.978Z,4.00
2018-02-12T11:16:04.038Z,4.08
2018-02-12T11:17:03.985Z,4.13
2018-02-12T11:18:04.103Z,4.18
2018-02-12T11:19:04.024Z,4.23
2018-02-12T11:20:04.093Z,4.28
2018-02-12T11:21:04.011Z,4.30
2018-02-12T11:22:04.069Z,4.34
2018-02-12T11:23:04.019Z,4.35
2018-02-12T11:24:04.086Z,4.39
2018-02-12T11:25:04.018Z,4.45
2018-02-12T11:26:04.097Z,4.49
2018-02-12T11:27:04.031Z,4.53
2018-02-12T11:28:04.121Z,4.54
2018-02-12T11:29:04.038Z,4.56
2018-02-12T11:30:05.054Z,4.59
2018-02-12T11:31:04.042Z,4.67
2018-02-12T11:32:04.138Z,4.75
2018-02-12T11:33:04.047Z,4.85
2018-02-12T11:34:05.068Z,4.89
2018-02-12T11:35:04.054Z,4.91
2018-02-12T11:36:05.101Z,4.93
2018-02-12T11:37:04.068Z,4.89
2018-02-12T11:38:04.075Z,4.88
2018-02-12T11:39:04.057Z,4.89
2018-02-12T11:40:04.105Z,4.88
2018-02-12T11:41:04.068Z,4.83
2018-02-12T11:42:04.105Z,4.78
2018-02-12T11:43:04.079Z,4.79
2018-02-12T11:44:04.088Z,4.82
2018-02-12T11:45:04.117Z,4.86
2018-02-12T11:46:04.083Z,4.93
2018-02-12T11:47:04.138Z,4.98
2018-02-12T11:48:04.096Z,5.04
2018-02-12T11:49:04.136Z,5.09
2018-02-12T11:50:04.107Z,5.09
2018-02-12T11:51:04.164Z,5.12
2018-02-12T11:52:04.124Z,5.09
2018-02-12T11:53:05.242Z,5.09
2018-02-12T11:54:04.110Z,5.07
2018-02-12T11:55:04.183Z,5.06
2018-02-12T11:56:04.131Z,5.04
2018-02-12T11:57:04.196Z,5.03
2018-02-12T11:58:04.147Z,5.06
2018-02-12T11:59:04.205Z,5.14
2018-02-12T12:00:04.169Z,5.21
2018-02-12T12:01:04.221Z,5.29
2018-02-12T12:02:04.159Z,5.34
2018-02-12T12:03:05.255Z,5.36
2018-02-12T12:04:04.195Z,5.36
2018-02-12T12:05:04.283Z,5.37
2018-02-12T12:06:04.164Z,5.34
2018-02-12T12:07:04.260Z,5.27
2018-02-12T12:08:04.329Z,5.21
2018-02-12T12:09:04.278Z,5.19
2018-02-12T12:10:04.179Z,5.15
2018-02-12T12:11:04.307Z,5.12
2018-02-12T12:12:04.229Z,5.15
2018-02-12T12:13:04.300Z,5.16
2018-02-12T12:14:04.192Z,5.19
2018-02-12T12:15:04.309Z,5.25
2018-02-12T12:16:04.210Z,5.32
2018-02-12T12:17:04.219Z,5.36
2018-02-12T12:18:04.209Z,5.40
2018-02-12T12:19:04.234Z,5.48
2018-02-12T12:20:04.211Z,5.52
2018-02-12T12:21:04.252Z,5.55
2018-02-12T12:22:04.214Z,5.52
2018-02-12T12:23:05.282Z,5.51
2018-02-12T12:24:04.229Z,5.52
2018-02-12T12:25:04.272Z,5.59
2018-02-12T12:26:04.233Z,5.70
2018-02-12T12:27:04.259Z,5.77
2018-02-12T12:28:04.252Z,5.87
2018-02-12T12:29:04.348Z,5.90
2018-02-12T12:30:04.263Z,5.90
2018-02-12T12:31:04.352Z,5.88
2018-02-12T12:32:04.274Z,5.88
2018-02-12T12:33:04.364Z,5.88
2018-02-12T12:34:04.272Z,5.85
2018-02-12T12:35:04.400Z,5.79
2018-02-12T12:36:04.273Z,5.75
2018-02-12T12:37:04.398Z,5.73
2018-02-12T12:38:04.313Z,5.69
2018-02-12T12:39:04.392Z,5.66
2018-02-12T12:40:04.316Z,5.66
2018-02-12T12:41:04.415Z,5.69
2018-02-12T12:42:04.297Z,5.70
2018-02-12T12:43:05.528Z,5.75
2018-02-12T12:44:04.309Z,5.77
2018-02-12T12:45:04.411Z,5.77
2018-02-12T12:46:04.314Z,5.72
2018-02-12T12:47:05.329Z,5.65
2018-02-12T12:48:04.325Z,5.54
2018-02-12T12:49:04.344Z,5.44
2018-02-12T12:50:04.326Z,5.34
2018-02-12T12:51:04.348Z,5.27
2018-02-12T12:52:04.332Z,5.24
2018-02-12T12:53:04.389Z,5.24
2018-02-12T12:54:04.345Z,5.25
2018-02-12T12:55:04.385Z,5.29
2018-02-12T12:56:04.352Z,5.34
2018-02-12T12:57:06.443Z,5.40
2018-02-12T12:58:04.360Z,5.43
2018-02-12T12:59:04.403Z,5.41
2018-02-12T13:00:04.371Z,5.41
2018-02-12T13:01:04.421Z,5.39
2018-02-12T13:02:04.414Z,5.37
2018-02-12T13:03:05.459Z,5.36
2018-02-12T13:04:04.415Z,5.33
2018-02-12T13:05:04.447Z,5.33
2018-02-12T13:06:04.415Z,5.33
2018-02-12T13:07:04.462Z,5.33
2018-02-12T13:08:04.467Z,5.30
2018-02-12T13:09:11.404Z,5.29
2018-02-12T13:10:04.404Z,5.24
2018-02-12T13:11:04.479Z,5.22
2018-02-12T13:12:04.437Z,5.22
2018-02-12T13:13:04.491Z,5.21
2018-02-12T13:14:04.411Z,5.19
2018-02-12T13:15:04.504Z,5.16
2018-02-12T13:16:04.421Z,5.14
2018-02-12T13:17:04.528Z,5.09
2018-02-12T13:18:04.435Z,5.04
2018-02-12T13:19:04.534Z,4.97
2018-02-12T13:20:04.446Z,4.96